sensor_id;sensor_type;location;lat;lon;timestamp;P1;durP1;ratioP1;P2;durP2;ratioP2
20144;SDS011;10233;50.814;6.590;2022-08-01T00:00:52;5.83;;;1.40;;
20144;SDS011;10233;50.814;6.590;2022-08-01T00:01:52;0.90;;;0.90;;
20144;SDS011;10233;50.814;6.590;2022-08-01T00:02:53;1.97;;;0.90;;
20144;SDS011;10233;50.814;6.590;2022-08-01T00:03:53;1.58;;;0.95;;
20144;SDS011;10233;50.814;6.590;2022-08-01T00:04:54;3.57;;;1.10;;
20144;SDS011;10233;50.814;6.590;2022-08-01T00:05:55;1.60;;;0.85;;
20144;SDS011;10233;50.814;6.590;2022-08-01T00:06:55;1.23;;;1.10;;
20144;SDS011;10233;50.814;6.590;2022-08-01T00:07:55;1.20;;;1.10;;
20144;SDS011;10233;50.814;6.590;2022-08-01T00:08:56;0.98;;;0.90;;
20144;SDS011;10233;50.814;6.590;2022-08-01T00:09:57;1.43;;;1.00;;
20144;SDS011;10233;50.814;6.590;2022-08-01T00:10:58;1.60;;;0.85;;
20144;SDS011;10233;50.814;6.590;2022-08-01T00:11:58;1.43;;;1.00;;
20144;SDS011;10233;50.814;6.590;2022-08-01T00:12:59;3.05;;;0.98;;
20144;SDS011;10233;50.814;6.590;2022-08-01T00:13:59;1.27;;;0.82;;
20144;SDS011;10233;50.814;6.590;2022-08-01T00:14:59;2.20;;;1.00;;
20144;SDS011;10233;50.814;6.590;2022-08-01T00:16:00;1.50;;;1.00;;
20144;SDS011;10233;50.814;6.590;2022-08-01T00:17:01;2.07;;;1.10;;
20144;SDS011;10233;50.814;6.590;2022-08-01T00:18:01;1.42;;;1.02;;
20144;SDS011;10233;50.814;6.590;2022-08-01T00:19:02;2.40;;;0.88;;
20144;SDS011;10233;50.814;6.590;2022-08-01T00:20:04;1.57;;;1.07;;
20144;SDS011;10233;50.814;6.590;2022-08-01T00:21:06;1.70;;;1.08;;
20144;SDS011;10233;50.814;6.590;2022-08-01T00:22:06;2.05;;;0.95;;
20144;SDS011;10233;50.814;6.590;2022-08-01T00:23:07;3.57;;;1.17;;
20144;SDS011;10233;50.814;6.590;2022-08-01T00:24:07;1.33;;;1.10;;
20144;SDS011;10233;50.814;6.590;2022-08-01T00:25:08;1.97;;;1.00;;
20144;SDS011;10233;50.814;6.590;2022-08-01T00:26:09;1.70;;;0.90;;
20144;SDS011;10233;50.814;6.590;2022-08-01T00:27:09;1.90;;;1.10;;
20144;SDS011;10233;50.814;6.590;2022-08-01T00:28:10;1.63;;;1.10;;
20144;SDS011;10233;50.814;6.590;2022-08-01T00:29:10;1.88;;;1.23;;
20144;SDS011;10233;50.814;6.590;2022-08-01T00:30:11;1.53;;;1.10;;
20144;SDS011;10233;50.814;6.590;2022-08-01T00:31:11;2.13;;;1.27;;
20144;SDS011;10233;50.814;6.590;2022-08-01T00:32:12;1.90;;;1.30;;
20144;SDS011;10233;50.814;6.590;2022-08-01T00:33:12;3.37;;;1.20;;
20144;SDS011;10233;50.814;6.590;2022-08-01T00:34:13;1.98;;;1.15;;
20144;SDS011;10233;50.814;6.590;2022-08-01T00:35:13;4.50;;;1.50;;
20144;SDS011;10233;50.814;6.590;2022-08-01T00:36:14;2.83;;;1.00;;
20144;SDS011;10233;50.814;6.590;2022-08-01T00:37:15;2.20;;;1.10;;
20144;SDS011;10233;50.814;6.590;2022-08-01T00:38:15;2.97;;;1.17;;
20144;SDS011;10233;50.814;6.590;2022-08-01T00:39:16;3.13;;;1.48;;
20144;SDS011;10233;50.814;6.590;2022-08-01T00:40:16;1.93;;;1.40;;
20144;SDS011;10233;50.814;6.590;2022-08-01T00:41:17;3.70;;;1.17;;
20144;SDS011;10233;50.814;6.590;2022-08-01T00:42:17;2.33;;;1.30;;
20144;SDS011;10233;50.814;6.590;2022-08-01T00:43:19;3.05;;;1.10;;
20144;SDS011;10233;50.814;6.590;2022-08-01T00:44:19;2.10;;;1.30;;
20144;SDS011;10233;50.814;6.590;2022-08-01T00:45:20;1.65;;;1.35;;
20144;SDS011;10233;50.814;6.590;2022-08-01T00:46:20;1.23;;;1.00;;
20144;SDS011;10233;50.814;6.590;2022-08-01T00:47:21;2.58;;;1.20;;
20144;SDS011;10233;50.814;6.590;2022-08-01T00:48:21;1.63;;;1.00;;
20144;SDS011;10233;50.814;6.590;2022-08-01T00:49:22;1.93;;;1.37;;
20144;SDS011;10233;50.814;6.590;2022-08-01T00:50:23;2.20;;;1.10;;
20144;SDS011;10233;50.814;6.590;2022-08-01T00:51:23;1.50;;;0.90;;
20144;SDS011;10233;50.814;6.590;2022-08-01T00:52:25;2.20;;;1.30;;
20144;SDS011;10233;50.814;6.590;2022-08-01T00:53:25;2.90;;;1.20;;
20144;SDS011;10233;50.814;6.590;2022-08-01T00:54:26;2.35;;;1.20;;
20144;SDS011;10233;50.814;6.590;2022-08-01T00:55:27;4.07;;;1.20;;
20144;SDS011;10233;50.814;6.590;2022-08-01T00:56:28;2.78;;;1.13;;
20144;SDS011;10233;50.814;6.590;2022-08-01T00:57:29;1.30;;;1.00;;
20144;SDS011;10233;50.814;6.590;2022-08-01T00:58:30;2.95;;;1.08;;
20144;SDS011;10233;50.814;6.590;2022-08-01T00:59:32;2.40;;;1.20;;
20144;SDS011;10233;50.814;6.590;2022-08-01T01:00:34;3.28;;;1.20;;
20144;SDS011;10233;50.814;6.590;2022-08-01T01:01:35;1.75;;;1.10;;
20144;SDS011;10233;50.814;6.590;2022-08-01T01:02:36;1.63;;;1.00;;
20144;SDS011;10233;50.814;6.590;2022-08-01T01:03:36;1.90;;;1.20;;
20144;SDS011;10233;50.814;6.590;2022-08-01T01:04:37;1.03;;;0.90;;
20144;SDS011;10233;50.814;6.590;2022-08-01T01:05:41;1.90;;;1.10;;
20144;SDS011;10233;50.814;6.590;2022-08-01T01:08:26;2.22;;;1.10;;
20144;SDS011;10233;50.814;6.590;2022-08-01T01:10:40;2.03;;;1.17;;
20144;SDS011;10233;50.814;6.590;2022-08-01T01:12:12;1.50;;;1.10;;
20144;SDS011;10233;50.814;6.590;2022-08-01T01:13:31;2.15;;;1.05;;
20144;SDS011;10233;50.814;6.590;2022-08-01T01:16:16;2.40;;;1.10;;
20144;SDS011;10233;50.814;6.590;2022-08-01T01:17:21;2.25;;;1.20;;
20144;SDS011;10233;50.814;6.590;2022-08-01T01:18:32;1.43;;;1.00;;
20144;SDS011;10233;50.814;6.590;2022-08-01T01:19:37;1.50;;;1.25;;
20144;SDS011;10233;50.814;6.590;2022-08-01T01:20:45;2.97;;;1.13;;
20144;SDS011;10233;50.814;6.590;2022-08-01T01:23:29;1.70;;;1.40;;
20144;SDS011;10233;50.814;6.590;2022-08-01T01:24:58;1.75;;;1.23;;
20144;SDS011;10233;50.814;6.590;2022-08-01T01:27:51;1.88;;;1.23;;
20144;SDS011;10233;50.814;6.590;2022-08-01T01:29:06;3.38;;;1.40;;
20144;SDS011;10233;50.814;6.590;2022-08-01T01:30:13;2.30;;;1.20;;
20144;SDS011;10233;50.814;6.590;2022-08-01T01:31:14;3.17;;;1.63;;
20144;SDS011;10233;50.814;6.590;2022-08-01T01:33:37;1.95;;;1.30;;
20144;SDS011;10233;50.814;6.590;2022-08-01T01:34:42;2.30;;;1.13;;
20144;SDS011;10233;50.814;6.590;2022-08-01T01:35:46;2.23;;;1.37;;
20144;SDS011;10233;50.814;6.590;2022-08-01T01:36:50;3.17;;;1.40;;
20144;SDS011;10233;50.814;6.590;2022-08-01T01:38:00;2.03;;;1.23;;
20144;SDS011;10233;50.814;6.590;2022-08-01T01:39:05;2.50;;;1.50;;
20144;SDS011;10233;50.814;6.590;2022-08-01T01:40:07;1.70;;;1.20;;
20144;SDS011;10233;50.814;6.590;2022-08-01T01:41:11;3.25;;;1.33;;
20144;SDS011;10233;50.814;6.590;2022-08-01T01:42:13;2.17;;;1.13;;
20144;SDS011;10233;50.814;6.590;2022-08-01T01:43:16;1.60;;;1.08;;
20144;SDS011;10233;50.814;6.590;2022-08-01T01:44:18;1.73;;;1.30;;
20144;SDS011;10233;50.814;6.590;2022-08-01T01:45:18;1.20;;;1.10;;
20144;SDS011;10233;50.814;6.590;2022-08-01T01:46:22;4.00;;;1.35;;
20144;SDS011;10233;50.814;6.590;2022-08-01T01:47:27;1.55;;;1.20;;
20144;SDS011;10233;50.814;6.590;2022-08-01T01:48:28;2.15;;;1.30;;
20144;SDS011;10233;50.814;6.590;2022-08-01T01:49:29;2.25;;;1.23;;
20144;SDS011;10233;50.814;6.590;2022-08-01T01:50:31;1.88;;;1.27;;
20144;SDS011;10233;50.814;6.590;2022-08-01T01:51:32;2.70;;;1.15;;
20144;SDS011;10233;50.814;6.590;2022-08-01T01:52:33;1.20;;;1.00;;
20144;SDS011;10233;50.814;6.590;2022-08-01T01:53:35;1.70;;;1.10;;
20144;SDS011;10233;50.814;6.590;2022-08-01T01:54:37;3.28;;;1.30;;
20144;SDS011;10233;50.814;6.590;2022-08-01T01:55:41;1.30;;;0.93;;
20144;SDS011;10233;50.814;6.590;2022-08-01T01:56:44;2.22;;;1.20;;
20144;SDS011;10233;50.814;6.590;2022-08-01T01:57:49;1.40;;;1.10;;
20144;SDS011;10233;50.814;6.590;2022-08-01T01:58:52;1.58;;;1.10;;
20144;SDS011;10233;50.814;6.590;2022-08-01T01:59:55;1.85;;;1.13;;
20144;SDS011;10233;50.814;6.590;2022-08-01T02:00:58;0.93;;;0.82;;
20144;SDS011;10233;50.814;6.590;2022-08-01T02:02:03;1.45;;;1.00;;
20144;SDS011;10233;50.814;6.590;2022-08-01T02:03:06;1.50;;;1.13;;
20144;SDS011;10233;50.814;6.590;2022-08-01T02:04:08;1.60;;;1.10;;
20144;SDS011;10233;50.814;6.590;2022-08-01T02:05:12;1.65;;;1.08;;
20144;SDS011;10233;50.814;6.590;2022-08-01T02:06:13;1.95;;;1.10;;
20144;SDS011;10233;50.814;6.590;2022-08-01T02:07:21;3.50;;;1.30;;
20144;SDS011;10233;50.814;6.590;2022-08-01T02:08:24;2.50;;;0.88;;
20144;SDS011;10233;50.814;6.590;2022-08-01T02:09:26;1.57;;;1.10;;
20144;SDS011;10233;50.814;6.590;2022-08-01T02:10:28;1.80;;;1.10;;
20144;SDS011;10233;50.814;6.590;2022-08-01T02:11:30;2.25;;;1.17;;
20144;SDS011;10233;50.814;6.590;2022-08-01T02:12:33;2.17;;;1.10;;
20144;SDS011;10233;50.814;6.590;2022-08-01T02:13:36;2.45;;;1.02;;
20144;SDS011;10233;50.814;6.590;2022-08-01T02:14:39;1.20;;;1.02;;
20144;SDS011;10233;50.814;6.590;2022-08-01T02:15:42;1.98;;;1.02;;
20144;SDS011;10233;50.814;6.590;2022-08-01T02:16:48;2.15;;;1.10;;
20144;SDS011;10233;50.814;6.590;2022-08-01T02:17:50;1.35;;;1.10;;
20144;SDS011;10233;50.814;6.590;2022-08-01T02:18:51;1.83;;;1.10;;
20144;SDS011;10233;50.814;6.590;2022-08-01T02:19:52;2.95;;;1.17;;
20144;SDS011;10233;50.814;6.590;2022-08-01T02:20:54;1.17;;;0.90;;
20144;SDS011;10233;50.814;6.590;2022-08-01T02:21:59;4.20;;;1.50;;
20144;SDS011;10233;50.814;6.590;2022-08-01T02:23:08;2.25;;;0.98;;
20144;SDS011;10233;50.814;6.590;2022-08-01T02:24:15;2.70;;;1.20;;
20144;SDS011;10233;50.814;6.590;2022-08-01T02:25:44;1.58;;;1.25;;
20144;SDS011;10233;50.814;6.590;2022-08-01T02:26:49;1.58;;;1.17;;
20144;SDS011;10233;50.814;6.590;2022-08-01T02:28:06;3.55;;;1.27;;
20144;SDS011;10233;50.814;6.590;2022-08-01T02:29:11;1.50;;;1.05;;
20144;SDS011;10233;50.814;6.590;2022-08-01T02:30:17;1.90;;;1.20;;
20144;SDS011;10233;50.814;6.590;2022-08-01T02:31:19;1.38;;;0.95;;
20144;SDS011;10233;50.814;6.590;2022-08-01T02:32:25;1.80;;;1.13;;
20144;SDS011;10233;50.814;6.590;2022-08-01T02:33:33;2.80;;;1.30;;
20144;SDS011;10233;50.814;6.590;2022-08-01T02:34:37;2.22;;;1.58;;
20144;SDS011;10233;50.814;6.590;2022-08-01T02:35:40;3.40;;;2.13;;
20144;SDS011;10233;50.814;6.590;2022-08-01T02:36:42;2.38;;;1.58;;
20144;SDS011;10233;50.814;6.590;2022-08-01T02:37:45;3.60;;;1.33;;
20144;SDS011;10233;50.814;6.590;2022-08-01T02:38:48;2.33;;;1.40;;
20144;SDS011;10233;50.814;6.590;2022-08-01T02:39:51;3.28;;;1.33;;
20144;SDS011;10233;50.814;6.590;2022-08-01T02:40:54;2.53;;;1.10;;
20144;SDS011;10233;50.814;6.590;2022-08-01T02:41:59;2.15;;;1.23;;
20144;SDS011;10233;50.814;6.590;2022-08-01T02:43:05;4.63;;;1.17;;
20144;SDS011;10233;50.814;6.590;2022-08-01T02:44:06;1.85;;;1.30;;
20144;SDS011;10233;50.814;6.590;2022-08-01T02:45:09;2.40;;;1.25;;
20144;SDS011;10233;50.814;6.590;2022-08-01T02:46:14;1.80;;;1.20;;
20144;SDS011;10233;50.814;6.590;2022-08-01T02:47:20;1.73;;;1.08;;
20144;SDS011;10233;50.814;6.590;2022-08-01T02:48:22;1.83;;;1.23;;
20144;SDS011;10233;50.814;6.590;2022-08-01T02:49:25;2.80;;;1.25;;
20144;SDS011;10233;50.814;6.590;2022-08-01T02:50:29;1.70;;;1.20;;
20144;SDS011;10233;50.814;6.590;2022-08-01T02:51:32;2.10;;;1.30;;
20144;SDS011;10233;50.814;6.590;2022-08-01T02:52:35;1.48;;;1.08;;
20144;SDS011;10233;50.814;6.590;2022-08-01T02:53:36;2.40;;;1.27;;
20144;SDS011;10233;50.814;6.590;2022-08-01T02:54:41;2.65;;;1.38;;
20144;SDS011;10233;50.814;6.590;2022-08-01T02:55:45;3.25;;;1.30;;
20144;SDS011;10233;50.814;6.590;2022-08-01T02:56:47;2.53;;;1.42;;
20144;SDS011;10233;50.814;6.590;2022-08-01T02:57:50;1.77;;;1.33;;
20144;SDS011;10233;50.814;6.590;2022-08-01T02:58:53;3.47;;;1.48;;
20144;SDS011;10233;50.814;6.590;2022-08-01T02:59:54;2.92;;;1.30;;
20144;SDS011;10233;50.814;6.590;2022-08-01T03:00:58;1.45;;;1.13;;
20144;SDS011;10233;50.814;6.590;2022-08-01T03:02:01;1.30;;;1.17;;
20144;SDS011;10233;50.814;6.590;2022-08-01T03:03:05;3.70;;;1.50;;
20144;SDS011;10233;50.814;6.590;2022-08-01T03:04:07;2.60;;;1.50;;
20144;SDS011;10233;50.814;6.590;2022-08-01T03:05:09;3.67;;;1.60;;
20144;SDS011;10233;50.814;6.590;2022-08-01T03:06:12;1.40;;;1.30;;
20144;SDS011;10233;50.814;6.590;2022-08-01T03:07:14;3.25;;;1.23;;
20144;SDS011;10233;50.814;6.590;2022-08-01T03:08:16;2.20;;;1.20;;
20144;SDS011;10233;50.814;6.590;2022-08-01T03:09:18;1.88;;;1.38;;
20144;SDS011;10233;50.814;6.590;2022-08-01T03:10:19;4.47;;;1.45;;
20144;SDS011;10233;50.814;6.590;2022-08-01T03:11:20;2.95;;;1.50;;
20144;SDS011;10233;50.814;6.590;2022-08-01T03:12:25;2.15;;;1.38;;
20144;SDS011;10233;50.814;6.590;2022-08-01T03:13:29;2.72;;;1.67;;
20144;SDS011;10233;50.814;6.590;2022-08-01T03:14:32;1.90;;;1.25;;
20144;SDS011;10233;50.814;6.590;2022-08-01T03:15:37;2.53;;;1.40;;
20144;SDS011;10233;50.814;6.590;2022-08-01T03:16:39;2.70;;;1.52;;
20144;SDS011;10233;50.814;6.590;2022-08-01T03:17:44;1.95;;;1.52;;
20144;SDS011;10233;50.814;6.590;2022-08-01T03:18:47;2.00;;;1.50;;
20144;SDS011;10233;50.814;6.590;2022-08-01T03:19:48;3.30;;;1.88;;
20144;SDS011;10233;50.814;6.590;2022-08-01T03:20:50;3.17;;;1.73;;
20144;SDS011;10233;50.814;6.590;2022-08-01T03:21:52;2.88;;;1.70;;
20144;SDS011;10233;50.814;6.590;2022-08-01T03:22:54;3.00;;;1.63;;
20144;SDS011;10233;50.814;6.590;2022-08-01T03:23:58;5.67;;;1.80;;
20144;SDS011;10233;50.814;6.590;2022-08-01T03:25:01;3.50;;;1.87;;
20144;SDS011;10233;50.814;6.590;2022-08-01T03:26:03;4.18;;;1.75;;
20144;SDS011;10233;50.814;6.590;2022-08-01T03:27:05;2.90;;;1.65;;
20144;SDS011;10233;50.814;6.590;2022-08-01T03:28:08;2.22;;;1.50;;
20144;SDS011;10233;50.814;6.590;2022-08-01T03:29:17;3.47;;;1.70;;
20144;SDS011;10233;50.814;6.590;2022-08-01T03:30:22;4.90;;;2.10;;
20144;SDS011;10233;50.814;6.590;2022-08-01T03:31:25;3.45;;;1.83;;
20144;SDS011;10233;50.814;6.590;2022-08-01T03:32:26;3.28;;;1.90;;
20144;SDS011;10233;50.814;6.590;2022-08-01T03:33:28;3.25;;;2.20;;
20144;SDS011;10233;50.814;6.590;2022-08-01T03:34:29;5.10;;;2.22;;
20144;SDS011;10233;50.814;6.590;2022-08-01T03:35:30;3.92;;;2.30;;
20144;SDS011;10233;50.814;6.590;2022-08-01T03:37:11;5.47;;;2.47;;
20144;SDS011;10233;50.814;6.590;2022-08-01T03:38:23;3.78;;;2.05;;
20144;SDS011;10233;50.814;6.590;2022-08-01T03:39:37;2.63;;;1.90;;
20144;SDS011;10233;50.814;6.590;2022-08-01T03:40:45;4.30;;;1.95;;
20144;SDS011;10233;50.814;6.590;2022-08-01T03:41:51;3.28;;;2.08;;
20144;SDS011;10233;50.814;6.590;2022-08-01T03:42:59;3.85;;;2.28;;
20144;SDS011;10233;50.814;6.590;2022-08-01T03:44:05;5.00;;;2.22;;
20144;SDS011;10233;50.814;6.590;2022-08-01T03:45:27;3.90;;;2.10;;
20144;SDS011;10233;50.814;6.590;2022-08-01T03:46:43;4.28;;;2.10;;
20144;SDS011;10233;50.814;6.590;2022-08-01T03:47:46;3.67;;;1.98;;
20144;SDS011;10233;50.814;6.590;2022-08-01T03:48:49;4.25;;;2.25;;
20144;SDS011;10233;50.814;6.590;2022-08-01T03:49:53;3.90;;;1.88;;
20144;SDS011;10233;50.814;6.590;2022-08-01T03:50:56;3.70;;;2.00;;
20144;SDS011;10233;50.814;6.590;2022-08-01T03:51:59;7.00;;;2.30;;
20144;SDS011;10233;50.814;6.590;2022-08-01T03:53:02;9.90;;;2.50;;
20144;SDS011;10233;50.814;6.590;2022-08-01T03:54:08;5.20;;;1.90;;
20144;SDS011;10233;50.814;6.590;2022-08-01T03:55:11;2.63;;;1.92;;
20144;SDS011;10233;50.814;6.590;2022-08-01T03:56:16;3.42;;;2.00;;
20144;SDS011;10233;50.814;6.590;2022-08-01T03:57:19;3.97;;;1.83;;
20144;SDS011;10233;50.814;6.590;2022-08-01T03:58:20;4.28;;;1.92;;
20144;SDS011;10233;50.814;6.590;2022-08-01T03:59:21;3.03;;;1.70;;
20144;SDS011;10233;50.814;6.590;2022-08-01T04:00:23;2.53;;;1.60;;
20144;SDS011;10233;50.814;6.590;2022-08-01T04:01:24;4.22;;;2.03;;
20144;SDS011;10233;50.814;6.590;2022-08-01T04:02:25;4.63;;;2.07;;
20144;SDS011;10233;50.814;6.590;2022-08-01T04:03:27;3.28;;;2.17;;
20144;SDS011;10233;50.814;6.590;2022-08-01T04:04:28;6.22;;;2.03;;
20144;SDS011;10233;50.814;6.590;2022-08-01T04:05:29;3.47;;;2.03;;
20144;SDS011;10233;50.814;6.590;2022-08-01T04:06:29;3.40;;;2.10;;
20144;SDS011;10233;50.814;6.590;2022-08-01T04:07:33;4.67;;;1.90;;
20144;SDS011;10233;50.814;6.590;2022-08-01T04:08:39;4.45;;;2.10;;
20144;SDS011;10233;50.814;6.590;2022-08-01T04:09:41;3.65;;;2.03;;
20144;SDS011;10233;50.814;6.590;2022-08-01T04:10:42;5.28;;;2.25;;
20144;SDS011;10233;50.814;6.590;2022-08-01T04:11:43;3.60;;;1.75;;
20144;SDS011;10233;50.814;6.590;2022-08-01T04:12:43;3.20;;;2.13;;
20144;SDS011;10233;50.814;6.590;2022-08-01T04:13:44;3.30;;;2.47;;
20144;SDS011;10233;50.814;6.590;2022-08-01T04:14:44;3.35;;;2.00;;
20144;SDS011;10233;50.814;6.590;2022-08-01T04:15:45;3.30;;;1.90;;
20144;SDS011;10233;50.814;6.590;2022-08-01T04:16:46;3.77;;;2.60;;
20144;SDS011;10233;50.814;6.590;2022-08-01T04:17:46;3.53;;;2.33;;
20144;SDS011;10233;50.814;6.590;2022-08-01T04:18:47;5.60;;;2.53;;
20144;SDS011;10233;50.814;6.590;2022-08-01T04:19:48;4.15;;;2.67;;
20144;SDS011;10233;50.814;6.590;2022-08-01T04:20:48;4.37;;;2.20;;
20144;SDS011;10233;50.814;6.590;2022-08-01T04:21:49;5.63;;;2.50;;
20144;SDS011;10233;50.814;6.590;2022-08-01T04:22:51;4.70;;;2.88;;
20144;SDS011;10233;50.814;6.590;2022-08-01T04:23:52;4.57;;;2.23;;
20144;SDS011;10233;50.814;6.590;2022-08-01T04:24:55;4.25;;;2.42;;
20144;SDS011;10233;50.814;6.590;2022-08-01T04:25:59;4.25;;;2.60;;
20144;SDS011;10233;50.814;6.590;2022-08-01T04:27:05;5.05;;;2.50;;
20144;SDS011;10233;50.814;6.590;2022-08-01T04:28:10;3.03;;;2.10;;
20144;SDS011;10233;50.814;6.590;2022-08-01T04:29:17;4.60;;;2.70;;
20144;SDS011;10233;50.814;6.590;2022-08-01T04:30:22;5.77;;;2.40;;
20144;SDS011;10233;50.814;6.590;2022-08-01T04:31:27;3.33;;;2.20;;
20144;SDS011;10233;50.814;6.590;2022-08-01T04:32:29;4.63;;;2.23;;
20144;SDS011;10233;50.814;6.590;2022-08-01T04:33:33;2.83;;;2.20;;
20144;SDS011;10233;50.814;6.590;2022-08-01T04:34:37;4.72;;;2.38;;
20144;SDS011;10233;50.814;6.590;2022-08-01T04:35:39;2.38;;;2.00;;
20144;SDS011;10233;50.814;6.590;2022-08-01T04:36:43;3.30;;;2.28;;
20144;SDS011;10233;50.814;6.590;2022-08-01T04:37:46;4.93;;;2.30;;
20144;SDS011;10233;50.814;6.590;2022-08-01T04:38:52;5.03;;;2.30;;
20144;SDS011;10233;50.814;6.590;2022-08-01T04:39:58;4.28;;;2.05;;
20144;SDS011;10233;50.814;6.590;2022-08-01T04:41:00;3.90;;;2.00;;
20144;SDS011;10233;50.814;6.590;2022-08-01T04:42:02;3.50;;;1.95;;
20144;SDS011;10233;50.814;6.590;2022-08-01T04:43:05;3.08;;;2.25;;
20144;SDS011;10233;50.814;6.590;2022-08-01T04:44:05;7.00;;;2.13;;
20144;SDS011;10233;50.814;6.590;2022-08-01T04:45:08;6.50;;;2.50;;
20144;SDS011;10233;50.814;6.590;2022-08-01T04:46:09;3.20;;;2.10;;
20144;SDS011;10233;50.814;6.590;2022-08-01T04:47:10;4.07;;;2.37;;
20144;SDS011;10233;50.814;6.590;2022-08-01T04:48:11;3.30;;;2.08;;
20144;SDS011;10233;50.814;6.590;2022-08-01T04:49:18;3.78;;;2.50;;
20144;SDS011;10233;50.814;6.590;2022-08-01T04:50:18;2.42;;;2.03;;
20144;SDS011;10233;50.814;6.590;2022-08-01T04:51:21;4.68;;;2.15;;
20144;SDS011;10233;50.814;6.590;2022-08-01T04:52:22;4.78;;;2.05;;
20144;SDS011;10233;50.814;6.590;2022-08-01T04:53:23;2.70;;;2.10;;
20144;SDS011;10233;50.814;6.590;2022-08-01T04:54:24;5.10;;;2.20;;
20144;SDS011;10233;50.814;6.590;2022-08-01T04:55:26;3.95;;;2.15;;
20144;SDS011;10233;50.814;6.590;2022-08-01T04:56:26;3.73;;;2.33;;
20144;SDS011;10233;50.814;6.590;2022-08-01T04:57:27;3.65;;;2.28;;
20144;SDS011;10233;50.814;6.590;2022-08-01T04:58:27;3.57;;;2.00;;
20144;SDS011;10233;50.814;6.590;2022-08-01T04:59:37;6.17;;;2.57;;
20144;SDS011;10233;50.814;6.590;2022-08-01T05:00:42;5.60;;;2.40;;
20144;SDS011;10233;50.814;6.590;2022-08-01T05:01:42;4.47;;;2.22;;
20144;SDS011;10233;50.814;6.590;2022-08-01T05:02:48;3.55;;;2.47;;
20144;SDS011;10233;50.814;6.590;2022-08-01T05:03:48;5.00;;;2.43;;
20144;SDS011;10233;50.814;6.590;2022-08-01T05:04:49;4.47;;;2.60;;
20144;SDS011;10233;50.814;6.590;2022-08-01T05:05:49;4.33;;;2.57;;
20144;SDS011;10233;50.814;6.590;2022-08-01T05:06:50;6.13;;;2.80;;
20144;SDS011;10233;50.814;6.590;2022-08-01T05:07:50;4.80;;;2.72;;
20144;SDS011;10233;50.814;6.590;2022-08-01T05:08:51;6.70;;;3.13;;
20144;SDS011;10233;50.814;6.590;2022-08-01T05:09:51;6.80;;;3.50;;
20144;SDS011;10233;50.814;6.590;2022-08-01T05:10:52;7.00;;;3.35;;
20144;SDS011;10233;50.814;6.590;2022-08-01T05:11:52;8.90;;;3.58;;
20144;SDS011;10233;50.814;6.590;2022-08-01T05:12:53;9.33;;;4.10;;
20144;SDS011;10233;50.814;6.590;2022-08-01T05:13:54;8.00;;;4.00;;
20144;SDS011;10233;50.814;6.590;2022-08-01T05:14:54;8.80;;;3.60;;
20144;SDS011;10233;50.814;6.590;2022-08-01T05:15:55;6.07;;;3.55;;
20144;SDS011;10233;50.814;6.590;2022-08-01T05:16:56;8.25;;;3.72;;
20144;SDS011;10233;50.814;6.590;2022-08-01T05:17:56;14.37;;;3.87;;
20144;SDS011;10233;50.814;6.590;2022-08-01T05:18:57;8.73;;;4.10;;
20144;SDS011;10233;50.814;6.590;2022-08-01T05:19:57;9.40;;;4.07;;
20144;SDS011;10233;50.814;6.590;2022-08-01T05:20:58;7.23;;;3.83;;
20144;SDS011;10233;50.814;6.590;2022-08-01T05:21:59;6.53;;;3.50;;
20144;SDS011;10233;50.814;6.590;2022-08-01T05:23:00;8.98;;;3.50;;
20144;SDS011;10233;50.814;6.590;2022-08-01T05:24:02;8.27;;;3.50;;
20144;SDS011;10233;50.814;6.590;2022-08-01T05:25:02;7.10;;;3.58;;
20144;SDS011;10233;50.814;6.590;2022-08-01T05:26:04;5.50;;;3.90;;
20144;SDS011;10233;50.814;6.590;2022-08-01T05:27:05;5.53;;;3.47;;
20144;SDS011;10233;50.814;6.590;2022-08-01T05:28:07;7.72;;;3.65;;
20144;SDS011;10233;50.814;6.590;2022-08-01T05:29:08;6.72;;;3.35;;
20144;SDS011;10233;50.814;6.590;2022-08-01T05:30:09;8.63;;;3.53;;
20144;SDS011;10233;50.814;6.590;2022-08-01T05:31:10;8.48;;;3.70;;
20144;SDS011;10233;50.814;6.590;2022-08-01T05:32:10;7.78;;;3.80;;
20144;SDS011;10233;50.814;6.590;2022-08-01T05:33:11;7.50;;;3.80;;
20144;SDS011;10233;50.814;6.590;2022-08-01T05:34:11;9.20;;;4.13;;
20144;SDS011;10233;50.814;6.590;2022-08-01T05:35:12;6.93;;;3.90;;
20144;SDS011;10233;50.814;6.590;2022-08-01T05:36:12;9.80;;;3.97;;
20144;SDS011;10233;50.814;6.590;2022-08-01T05:37:13;9.97;;;5.03;;
20144;SDS011;10233;50.814;6.590;2022-08-01T05:38:13;8.05;;;4.63;;
20144;SDS011;10233;50.814;6.590;2022-08-01T05:39:14;7.60;;;3.83;;
20144;SDS011;10233;50.814;6.590;2022-08-01T05:40:15;9.38;;;4.55;;
20144;SDS011;10233;50.814;6.590;2022-08-01T05:41:15;22.33;;;7.40;;
20144;SDS011;10233;50.814;6.590;2022-08-01T05:42:16;40.10;;;10.32;;
20144;SDS011;10233;50.814;6.590;2022-08-01T05:43:16;30.20;;;9.05;;
20144;SDS011;10233;50.814;6.590;2022-08-01T05:44:17;63.50;;;15.27;;
20144;SDS011;10233;50.814;6.590;2022-08-01T05:45:17;16.33;;;7.63;;
20144;SDS011;10233;50.814;6.590;2022-08-01T05:46:18;23.00;;;8.43;;
20144;SDS011;10233;50.814;6.590;2022-08-01T05:47:18;20.57;;;7.80;;
20144;SDS011;10233;50.814;6.590;2022-08-01T05:48:19;89.10;;;19.73;;
20144;SDS011;10233;50.814;6.590;2022-08-01T05:49:19;20.92;;;8.00;;
20144;SDS011;10233;50.814;6.590;2022-08-01T05:50:20;65.90;;;18.00;;
20144;SDS011;10233;50.814;6.590;2022-08-01T05:51:20;55.00;;;13.97;;
20144;SDS011;10233;50.814;6.590;2022-08-01T05:52:20;21.20;;;9.25;;
20144;SDS011;10233;50.814;6.590;2022-08-01T05:53:21;32.93;;;9.07;;
20144;SDS011;10233;50.814;6.590;2022-08-01T05:54:21;40.33;;;11.20;;
20144;SDS011;10233;50.814;6.590;2022-08-01T05:55:22;30.35;;;9.25;;
20144;SDS011;10233;50.814;6.590;2022-08-01T05:56:22;29.45;;;9.70;;
20144;SDS011;10233;50.814;6.590;2022-08-01T05:57:23;75.95;;;18.20;;
20144;SDS011;10233;50.814;6.590;2022-08-01T05:58:24;60.20;;;15.65;;
20144;SDS011;10233;50.814;6.590;2022-08-01T05:59:24;56.80;;;14.73;;
20144;SDS011;10233;50.814;6.590;2022-08-01T06:00:26;43.25;;;11.50;;
20144;SDS011;10233;50.814;6.590;2022-08-01T06:01:26;36.83;;;11.43;;
20144;SDS011;10233;50.814;6.590;2022-08-01T06:02:27;22.93;;;8.00;;
20144;SDS011;10233;50.814;6.590;2022-08-01T06:03:27;22.48;;;8.80;;
20144;SDS011;10233;50.814;6.590;2022-08-01T06:04:31;27.10;;;8.20;;
20144;SDS011;10233;50.814;6.590;2022-08-01T06:05:31;23.47;;;8.80;;
20144;SDS011;10233;50.814;6.590;2022-08-01T06:06:32;30.67;;;9.63;;
20144;SDS011;10233;50.814;6.590;2022-08-01T06:07:32;23.30;;;8.77;;
20144;SDS011;10233;50.814;6.590;2022-08-01T06:08:33;16.00;;;6.90;;
20144;SDS011;10233;50.814;6.590;2022-08-01T06:09:33;17.77;;;6.90;;
20144;SDS011;10233;50.814;6.590;2022-08-01T06:10:33;16.20;;;6.90;;
20144;SDS011;10233;50.814;6.590;2022-08-01T06:11:34;18.77;;;6.80;;
20144;SDS011;10233;50.814;6.590;2022-08-01T06:12:35;11.80;;;5.60;;
20144;SDS011;10233;50.814;6.590;2022-08-01T06:13:36;12.30;;;5.40;;
20144;SDS011;10233;50.814;6.590;2022-08-01T06:14:36;10.97;;;5.57;;
20144;SDS011;10233;50.814;6.590;2022-08-01T06:15:37;12.50;;;6.10;;
20144;SDS011;10233;50.814;6.590;2022-08-01T06:16:37;12.85;;;5.68;;
20144;SDS011;10233;50.814;6.590;2022-08-01T06:17:38;10.53;;;5.23;;
20144;SDS011;10233;50.814;6.590;2022-08-01T06:18:39;9.95;;;5.75;;
20144;SDS011;10233;50.814;6.590;2022-08-01T06:19:40;9.67;;;4.97;;
20144;SDS011;10233;50.814;6.590;2022-08-01T06:20:40;8.85;;;4.78;;
20144;SDS011;10233;50.814;6.590;2022-08-01T06:21:41;7.35;;;4.57;;
20144;SDS011;10233;50.814;6.590;2022-08-01T06:22:42;9.80;;;5.03;;
20144;SDS011;10233;50.814;6.590;2022-08-01T06:23:42;7.97;;;4.50;;
20144;SDS011;10233;50.814;6.590;2022-08-01T06:24:43;7.45;;;4.50;;
20144;SDS011;10233;50.814;6.590;2022-08-01T06:25:43;7.60;;;4.33;;
20144;SDS011;10233;50.814;6.590;2022-08-01T06:26:44;8.43;;;4.73;;